Terminal Aerodrome Forecast
Issued by NWS

Home | Current Version | Previous Version | Text Only | Print | Product List | Glossary On
Versions: 1 2 3 4 5 6 7 8 9 10 11 12 13 14 15 16 17 18 19
000
FTUS44 KLZK 270520
TAFHOT
TAF
KHOT 270520Z 2706/2806 VRB02KT P6SM FEW030 SCT100 BKN250
      TEMPO 2708/2712 2SM BR
     FM271400 13004KT P6SM VCTS SCT040CB SCT100 PROB30 2718/2724
      -TSRA=

USA.gov is the U.S. government's official web portal to all federal, state and local government web resources and services.